createdAt,value
2023-03-03T00:02:00.055Z,8.73
2023-03-03T00:04:32.227Z,9.88
2023-03-03T00:07:01.805Z,9.13
2023-03-03T00:09:31.407Z,9.68
2023-03-03T00:12:03.466Z,9.52
2023-03-03T00:14:35.191Z,9.93
2023-03-03T00:17:23.773Z,11.57
2023-03-03T00:19:56.800Z,9.95
2023-03-03T00:22:32.829Z,10.32
2023-03-03T00:25:23.689Z,9.25
2023-03-03T00:27:53.398Z,10.25
2023-03-03T00:30:27.082Z,9.25
2023-03-03T00:32:57.786Z,9.82
2023-03-03T00:35:35.623Z,8.93
2023-03-03T00:38:13.901Z,9.43
2023-03-03T00:40:44.287Z,9.02
2023-03-03T00:43:21.884Z,8.35
2023-03-03T00:45:53.248Z,8.57
2023-03-03T00:48:27.205Z,10.02
2023-03-03T00:51:01.233Z,7.88
2023-03-03T00:53:33.251Z,9.82
2023-03-03T00:56:02.974Z,9.15
2023-03-03T00:58:32.586Z,9.98
2023-03-03T01:01:02.217Z,9.77
2023-03-03T01:03:42.093Z,8.77
2023-03-03T01:06:15.470Z,8.73
2023-03-03T01:08:45.898Z,8.65
2023-03-03T01:11:18.788Z,8.50
2023-03-03T01:13:50.689Z,8.52
2023-03-03T01:16:21.089Z,8.27
2023-03-03T01:18:50.949Z,9.68
2023-03-03T01:21:23.088Z,8.27
2023-03-03T01:23:52.689Z,8.02
2023-03-03T01:26:22.601Z,8.23
2023-03-03T01:28:52.143Z,6.90
2023-03-03T01:31:21.826Z,7.45
2023-03-03T01:33:51.414Z,7.43
2023-03-03T01:36:28.904Z,8.00
2023-03-03T01:38:58.872Z,8.45
2023-03-03T01:41:33.008Z,6.80
2023-03-03T01:44:03.012Z,7.05
2023-03-03T01:46:43.484Z,7.30
2023-03-03T01:49:17.017Z,8.05
2023-03-03T01:51:53.594Z,7.00
2023-03-03T01:54:28.073Z,7.82
2023-03-03T01:57:02.717Z,8.25
2023-03-03T01:59:37.087Z,8.02
2023-03-03T02:02:07.044Z,9.20
2023-03-03T02:04:37.828Z,9.02
2023-03-03T02:07:13.540Z,7.82
2023-03-03T02:09:52.140Z,9.25
2023-03-03T02:12:26.156Z,8.02
2023-03-03T02:14:55.715Z,7.28
2023-03-03T02:17:25.639Z,7.85
2023-03-03T02:20:01.772Z,8.52
2023-03-03T02:22:44.925Z,8.93
2023-03-03T02:25:20.294Z,9.40
2023-03-03T02:27:52.447Z,8.23
2023-03-03T02:30:26.594Z,7.40
2023-03-03T02:32:56.170Z,10.02
2023-03-03T02:35:31.768Z,9.38
2023-03-03T02:38:10.449Z,8.05
2023-03-03T02:40:45.205Z,9.57
2023-03-03T02:43:20.496Z,8.43
2023-03-03T02:45:50.168Z,9.98
2023-03-03T02:48:19.806Z,9.63
2023-03-03T02:50:49.353Z,7.68
2023-03-03T02:53:19.015Z,8.13
2023-03-03T02:55:48.659Z,7.65
2023-03-03T02:58:21.559Z,8.23
2023-03-03T03:00:51.185Z,9.70
2023-03-03T03:03:25.482Z,7.75
2023-03-03T03:05:55.298Z,8.55
2023-03-03T03:08:26.568Z,9.48
2023-03-03T03:10:56.982Z,10.25
2023-03-03T03:13:30.454Z,12.30
2023-03-03T03:16:00.208Z,7.93
2023-03-03T03:18:30.339Z,9.75
2023-03-03T03:21:07.883Z,8.95
2023-03-03T03:23:38.705Z,9.25
2023-03-03T03:26:09.467Z,8.27
2023-03-03T03:28:41.751Z,7.85
2023-03-03T03:31:13.027Z,8.07
2023-03-03T03:33:42.716Z,8.50
2023-03-03T03:36:13.633Z,8.00
2023-03-03T03:38:44.726Z,7.32
2023-03-03T03:41:15.522Z,8.73
2023-03-03T03:43:48.121Z,10.77
2023-03-03T03:46:19.340Z,9.02
2023-03-03T03:48:49.189Z,9.98
2023-03-03T03:51:21.640Z,9.18
2023-03-03T03:53:51.535Z,9.63
2023-03-03T03:56:21.121Z,9.38
2023-03-03T03:58:56.837Z,9.43
2023-03-03T04:01:26.579Z,8.95
2023-03-03T04:03:57.001Z,9.07
2023-03-03T04:06:27.652Z,8.95
2023-03-03T04:08:58.886Z,8.93
2023-03-03T04:11:29.272Z,8.60
2023-03-03T04:14:01.465Z,8.38
2023-03-03T04:16:31.191Z,10.68
2023-03-03T04:19:00.799Z,10.73
2023-03-03T04:21:30.674Z,9.68
2023-03-03T04:24:02.107Z,9.25
2023-03-03T04:26:33.768Z,8.80
2023-03-03T04:29:08.643Z,9.98
2023-03-03T04:31:38.397Z,8.85
2023-03-03T04:34:10.712Z,8.90
2023-03-03T04:36:41.304Z,10.07
2023-03-03T04:39:10.909Z,8.75
2023-03-03T04:41:40.622Z,8.80
2023-03-03T04:44:12.977Z,9.50
2023-03-03T04:46:42.560Z,10.85
2023-03-03T04:49:12.602Z,9.48
2023-03-03T04:51:43.306Z,9.32
2023-03-03T04:54:13.820Z,8.52
2023-03-03T04:56:43.460Z,8.57
2023-03-03T04:59:15.626Z,8.35
2023-03-03T05:01:46.585Z,8.57
2023-03-03T05:04:17.111Z,8.95
2023-03-03T05:06:46.722Z,8.68
2023-03-03T05:09:16.316Z,8.15
2023-03-03T05:11:45.863Z,9.65
2023-03-03T05:14:18.008Z,7.88
2023-03-03T05:16:47.669Z,8.20
2023-03-03T05:19:17.324Z,8.10
2023-03-03T05:21:46.869Z,7.43
2023-03-03T05:24:17.204Z,6.65
2023-03-03T05:26:46.747Z,6.32
2023-03-03T05:29:18.899Z,6.32
2023-03-03T05:31:48.510Z,5.65
2023-03-03T05:34:18.385Z,5.97
2023-03-03T05:36:47.957Z,6.82
2023-03-03T05:39:17.550Z,6.70
2023-03-03T05:41:47.126Z,5.38
2023-03-03T05:44:20.745Z,6.45
2023-03-03T05:46:50.437Z,6.93
2023-03-03T05:49:20.099Z,6.57
2023-03-03T05:51:49.660Z,6.80
2023-03-03T05:54:19.321Z,6.75
2023-03-03T05:56:48.909Z,7.45
2023-03-03T05:59:21.480Z,6.97
2023-03-03T06:01:51.125Z,7.13
2023-03-03T06:04:20.694Z,8.60
2023-03-03T06:06:50.277Z,8.18
2023-03-03T06:09:21.185Z,8.05
2023-03-03T06:11:52.938Z,7.53
2023-03-03T06:14:27.191Z,7.85
2023-03-03T06:16:57.917Z,8.23
2023-03-03T06:19:27.733Z,6.80
2023-03-03T06:22:00.561Z,7.88
2023-03-03T06:24:31.199Z,7.95
2023-03-03T06:27:01.121Z,7.15
2023-03-03T06:29:33.274Z,6.93
2023-03-03T06:32:03.143Z,6.72
2023-03-03T06:34:32.934Z,6.15
2023-03-03T06:37:02.525Z,7.80
2023-03-03T06:39:32.046Z,7.63
2023-03-03T06:42:01.638Z,7.43
2023-03-03T06:44:33.852Z,7.57
2023-03-03T06:47:03.507Z,7.50
2023-03-03T06:49:33.073Z,7.28
2023-03-03T06:52:08.376Z,7.53
2023-03-03T06:54:38.191Z,7.18
2023-03-03T06:57:18.990Z,7.90
2023-03-03T06:59:55.874Z,7.82
2023-03-03T07:02:25.746Z,7.63
2023-03-03T07:04:58.705Z,7.35
2023-03-03T07:07:29.283Z,8.05
2023-03-03T07:10:00.002Z,7.65
2023-03-03T07:12:33.113Z,7.70
2023-03-03T07:15:17.812Z,7.97
2023-03-03T07:17:51.052Z,7.68
2023-03-03T07:20:24.161Z,7.22
2023-03-03T07:22:54.612Z,7.63
2023-03-03T07:25:32.377Z,7.88
2023-03-03T07:28:14.145Z,7.70
2023-03-03T07:30:46.378Z,8.82
2023-03-03T07:33:25.225Z,9.18
2023-03-03T07:35:57.898Z,9.35
2023-03-03T07:38:33.483Z,9.35
2023-03-03T07:41:05.696Z,10.57
2023-03-03T07:43:38.905Z,9.48
2023-03-03T07:46:28.005Z,9.50
2023-03-03T07:48:59.684Z,10.20
2023-03-03T07:51:31.881Z,10.68
2023-03-03T07:54:20.772Z,8.18
2023-03-03T07:56:50.653Z,8.52
2023-03-03T07:59:24.750Z,8.07
2023-03-03T08:02:00.616Z,7.90
2023-03-03T08:04:39.650Z,7.00
2023-03-03T08:07:16.789Z,7.35
2023-03-03T08:13:11.930Z,7.40
2023-03-03T08:15:41.541Z,7.65
2023-03-03T08:18:22.460Z,7.70
2023-03-03T08:20:53.879Z,7.80
2023-03-03T08:23:24.448Z,8.95
2023-03-03T08:25:57.176Z,8.88
2023-03-03T08:28:26.840Z,9.13
2023-03-03T08:31:12.510Z,11.13
2023-03-03T08:33:49.293Z,8.73
2023-03-03T08:36:18.880Z,8.65
2023-03-03T08:38:48.494Z,7.40
2023-03-03T08:41:18.189Z,8.95
2023-03-03T08:43:48.409Z,8.05
2023-03-03T08:46:18.058Z,8.35
2023-03-03T08:48:50.203Z,8.07
2023-03-03T08:51:19.848Z,7.32
2023-03-03T08:53:49.570Z,7.38
2023-03-03T08:56:19.070Z,7.88
2023-03-03T08:59:03.973Z,7.57
2023-03-03T09:01:34.264Z,8.40
2023-03-03T09:04:06.626Z,7.65
2023-03-03T09:06:36.184Z,7.65
2023-03-03T09:09:06.165Z,7.72
2023-03-03T09:11:36.010Z,8.70
2023-03-03T09:14:13.121Z,9.05
2023-03-03T09:16:46.051Z,8.43
2023-03-03T09:19:26.835Z,8.70
2023-03-03T09:21:57.775Z,8.90
2023-03-03T09:24:29.708Z,9.35
2023-03-03T09:27:01.230Z,9.55
2023-03-03T09:29:32.091Z,9.60
2023-03-03T09:32:03.478Z,9.10
2023-03-03T09:34:41.391Z,10.30
2023-03-03T09:37:24.629Z,8.43
2023-03-03T09:39:55.585Z,9.88
2023-03-03T09:42:44.167Z,9.27
2023-03-03T09:45:33.336Z,8.23
2023-03-03T09:48:25.762Z,11.20
2023-03-03T09:51:09.135Z,10.65
2023-03-03T09:53:54.126Z,9.02
2023-03-03T09:56:31.766Z,9.30
2023-03-03T09:59:12.694Z,9.50
2023-03-03T10:02:03.479Z,9.73
2023-03-03T10:04:54.295Z,10.23
2023-03-03T10:07:38.550Z,10.32
2023-03-03T10:10:22.300Z,7.78
2023-03-03T10:13:04.233Z,7.35
2023-03-03T10:15:45.578Z,6.68
2023-03-03T10:18:27.067Z,8.23
2023-03-03T10:21:07.455Z,8.98
2023-03-03T10:23:59.394Z,8.63
2023-03-03T10:27:09.796Z,8.02
2023-03-03T10:29:49.451Z,8.60
2023-03-03T10:32:34.834Z,9.18
2023-03-03T10:35:19.286Z,9.90
2023-03-03T10:38:00.779Z,8.90
2023-03-03T10:40:40.819Z,10.30
2023-03-03T10:43:38.057Z,8.25
2023-03-03T10:46:23.277Z,7.80
2023-03-03T10:49:16.305Z,8.55
2023-03-03T10:51:58.850Z,7.82
2023-03-03T10:54:41.159Z,8.07
2023-03-03T10:57:20.230Z,8.73
2023-03-03T11:00:05.588Z,9.15
2023-03-03T11:02:46.449Z,8.30
2023-03-03T11:05:35.909Z,8.82
2023-03-03T11:08:11.051Z,9.48
2023-03-03T11:10:51.819Z,9.50
2023-03-03T11:13:35.559Z,9.30
2023-03-03T11:16:29.208Z,9.02
2023-03-03T11:19:15.994Z,10.52
2023-03-03T11:21:52.837Z,9.57
2023-03-03T11:24:32.602Z,11.05
2023-03-03T11:27:16.013Z,8.90
2023-03-03T11:29:59.480Z,10.07
2023-03-03T11:32:40.566Z,10.77
2023-03-03T11:35:25.073Z,10.75
2023-03-03T11:38:06.250Z,11.20
2023-03-03T11:40:47.899Z,11.65
2023-03-03T11:43:35.623Z,10.73
2023-03-03T11:46:14.436Z,12.15
2023-03-03T11:48:53.517Z,12.50
2023-03-03T11:51:29.962Z,12.77
2023-03-03T11:54:06.992Z,13.60
2023-03-03T11:56:42.418Z,18.13
2023-03-03T11:59:44.654Z,19.60
2023-03-03T12:02:44.184Z,17.63
2023-03-03T12:05:26.034Z,15.27
2023-03-03T12:08:06.168Z,15.57
2023-03-03T12:10:44.080Z,17.58
2023-03-03T12:13:26.352Z,18.48
2023-03-03T12:16:03.397Z,18.98
2023-03-03T12:18:56.404Z,21.25
2023-03-03T12:21:38.337Z,22.17
2023-03-03T12:24:30.232Z,21.83
2023-03-03T12:27:13.520Z,22.83
2023-03-03T12:29:52.085Z,22.85
2023-03-03T12:32:33.480Z,20.70
2023-03-03T12:35:13.012Z,20.92
2023-03-03T12:37:56.530Z,21.70
2023-03-03T12:40:29.214Z,23.48
2023-03-03T12:43:10.760Z,20.00
2023-03-03T12:45:50.282Z,20.83
2023-03-03T12:48:24.309Z,21.33
2023-03-03T12:51:10.128Z,20.02
2023-03-03T12:54:13.757Z,21.05
2023-03-03T12:56:49.771Z,21.48
2023-03-03T13:02:11.969Z,20.77
2023-03-03T13:04:47.634Z,16.70
2023-03-03T13:10:11.602Z,18.92
2023-03-03T13:12:47.058Z,19.90
2023-03-03T13:15:31.765Z,21.42
2023-03-03T13:18:28.218Z,21.05
2023-03-03T13:21:06.293Z,21.23
2023-03-03T13:23:50.744Z,22.02
2023-03-03T13:26:25.669Z,18.77
2023-03-03T13:29:03.353Z,24.77
2023-03-03T13:31:37.162Z,18.73
2023-03-03T13:34:07.185Z,19.15
2023-03-03T13:36:42.197Z,19.67
2023-03-03T13:39:23.024Z,16.02
2023-03-03T13:41:59.234Z,19.65
2023-03-03T13:44:34.678Z,17.92
2023-03-03T13:47:16.739Z,15.98
2023-03-03T13:50:06.569Z,16.75
2023-03-03T13:52:45.577Z,17.95
2023-03-03T13:55:26.663Z,16.65
2023-03-03T13:58:07.587Z,13.90
2023-03-03T14:00:52.830Z,15.10
2023-03-03T14:03:52.480Z,15.03
2023-03-03T14:06:24.881Z,13.07
2023-03-03T14:09:08.871Z,10.75
2023-03-03T14:11:49.536Z,12.35
2023-03-03T14:14:39.184Z,12.38
2023-03-03T14:17:18.078Z,9.93
2023-03-03T14:19:50.452Z,10.25
2023-03-03T14:22:24.244Z,9.35
2023-03-03T14:25:02.054Z,9.00
2023-03-03T14:27:39.379Z,10.07
2023-03-03T14:30:31.872Z,9.70
2023-03-03T14:33:04.638Z,12.02
2023-03-03T14:35:37.557Z,11.82
2023-03-03T14:38:15.830Z,10.90
2023-03-03T14:40:47.767Z,10.20
2023-03-03T14:43:30.146Z,9.77
2023-03-03T14:45:59.962Z,10.05
2023-03-03T14:48:32.624Z,10.63
2023-03-03T14:51:18.554Z,10.70
2023-03-03T14:53:50.694Z,10.30
2023-03-03T14:56:26.386Z,9.85
2023-03-03T14:59:19.215Z,9.27
2023-03-03T15:01:49.753Z,9.18
2023-03-03T15:04:28.456Z,8.55
2023-03-03T15:06:58.969Z,8.57
2023-03-03T15:09:39.306Z,8.50
2023-03-03T15:12:37.931Z,7.65
2023-03-03T15:15:21.326Z,7.35
2023-03-03T15:18:00.491Z,7.70
2023-03-03T15:20:39.952Z,6.85
2023-03-03T15:23:24.461Z,6.80
2023-03-03T15:26:02.319Z,7.18
2023-03-03T15:28:55.321Z,7.60
2023-03-03T15:31:37.387Z,6.68
2023-03-03T15:34:23.264Z,6.57
2023-03-03T15:36:59.293Z,7.20
2023-03-03T15:39:39.217Z,6.75
2023-03-03T15:42:16.428Z,6.18
2023-03-03T15:44:59.332Z,7.00
2023-03-03T15:47:53.824Z,6.93
2023-03-03T15:50:47.767Z,6.70
2023-03-03T15:53:31.957Z,6.65
2023-03-03T15:56:22.430Z,6.40
2023-03-03T15:59:30.784Z,7.25
2023-03-03T16:02:12.604Z,6.65
2023-03-03T16:04:55.483Z,8.05
2023-03-03T16:07:35.789Z,8.18
2023-03-03T16:10:16.232Z,7.40
2023-03-03T16:12:57.884Z,7.13
2023-03-03T16:15:40.557Z,7.78
2023-03-03T16:18:20.747Z,7.40
2023-03-03T16:21:05.979Z,7.93
2023-03-03T16:23:48.283Z,8.52
2023-03-03T16:26:31.668Z,8.43
2023-03-03T16:29:14.498Z,8.55
2023-03-03T16:31:50.135Z,7.90
2023-03-03T16:34:24.668Z,7.90
2023-03-03T16:37:06.662Z,7.68
2023-03-03T16:39:49.755Z,7.60
2023-03-03T16:42:28.012Z,7.10
2023-03-03T16:45:11.787Z,7.40
2023-03-03T16:47:52.642Z,7.00
2023-03-03T16:50:29.469Z,6.65
2023-03-03T16:53:09.767Z,7.63
2023-03-03T16:55:45.677Z,7.03
2023-03-03T16:58:29.003Z,7.50
2023-03-03T17:01:08.767Z,7.30
2023-03-03T17:03:50.365Z,6.40
2023-03-03T17:06:26.327Z,7.32
2023-03-03T17:09:26.689Z,7.18
2023-03-03T17:12:16.020Z,6.88
2023-03-03T17:15:02.307Z,6.90
2023-03-03T17:17:43.993Z,7.00
2023-03-03T17:20:27.670Z,7.55
2023-03-03T17:23:11.462Z,7.55
2023-03-03T17:25:48.149Z,7.78
2023-03-03T17:28:31.162Z,7.90
2023-03-03T17:31:11.111Z,8.05
2023-03-03T17:33:57.449Z,8.02
2023-03-03T17:36:45.451Z,7.70
2023-03-03T17:39:41.235Z,7.63
2023-03-03T17:42:22.189Z,6.60
2023-03-03T17:45:01.097Z,9.38
2023-03-03T17:47:44.682Z,8.55
2023-03-03T17:50:27.433Z,8.32
2023-03-03T17:53:18.852Z,9.35
2023-03-03T17:56:04.623Z,9.48
2023-03-03T17:59:10.001Z,9.82
2023-03-03T18:02:01.746Z,9.35
2023-03-03T18:04:45.028Z,9.15
2023-03-03T18:07:33.096Z,9.48
2023-03-03T18:10:45.779Z,9.75
2023-03-03T18:13:35.060Z,10.90
2023-03-03T18:16:19.211Z,11.57
2023-03-03T18:19:10.896Z,12.50
2023-03-03T18:21:46.911Z,14.90
2023-03-03T18:24:30.173Z,11.38
2023-03-03T18:27:16.470Z,11.02
2023-03-03T18:30:33.537Z,10.10
2023-03-03T18:33:16.217Z,12.00
2023-03-03T18:35:49.425Z,11.88
2023-03-03T18:38:30.468Z,11.65
2023-03-03T18:41:02.758Z,13.38
2023-03-03T18:43:56.356Z,11.60
2023-03-03T18:46:48.397Z,12.85
2023-03-03T18:49:21.197Z,12.50
2023-03-03T18:52:15.295Z,12.57
2023-03-03T18:54:45.481Z,12.25
2023-03-03T18:57:18.570Z,13.43
2023-03-03T18:59:57.297Z,12.50
2023-03-03T19:02:40.200Z,12.27
2023-03-03T19:05:23.430Z,13.75
2023-03-03T19:07:59.165Z,13.10
2023-03-03T19:13:49.553Z,13.73
2023-03-03T19:16:36.798Z,12.45
2023-03-03T19:19:17.331Z,13.05
2023-03-03T19:21:53.506Z,13.18
2023-03-03T19:24:40.981Z,13.18
2023-03-03T19:27:30.856Z,14.15
2023-03-03T19:30:10.409Z,13.85
2023-03-03T19:33:12.193Z,14.90
2023-03-03T19:35:53.586Z,14.77
2023-03-03T19:38:36.569Z,13.82
2023-03-03T19:41:22.631Z,14.43
2023-03-03T19:44:04.532Z,13.23
2023-03-03T19:46:53.239Z,13.77
2023-03-03T19:49:36.478Z,12.88
2023-03-03T19:52:11.728Z,12.82
2023-03-03T19:54:56.958Z,12.18
2023-03-03T19:57:43.260Z,9.38
2023-03-03T20:00:21.696Z,11.95
2023-03-03T20:03:08.450Z,11.98
2023-03-03T20:05:46.781Z,11.63
2023-03-03T20:08:23.983Z,11.48
2023-03-03T20:10:59.925Z,11.73
2023-03-03T20:13:54.915Z,10.68
2023-03-03T20:16:37.308Z,11.18
2023-03-03T20:19:20.400Z,10.68
2023-03-03T20:22:02.858Z,10.30
2023-03-03T20:24:50.583Z,10.60
2023-03-03T20:27:26.990Z,10.95
2023-03-03T20:30:16.941Z,11.55
2023-03-03T20:32:59.642Z,12.23
2023-03-03T20:35:40.481Z,10.27
2023-03-03T20:38:21.127Z,9.68
2023-03-03T20:40:58.839Z,9.18
2023-03-03T20:43:45.073Z,8.45
2023-03-03T20:46:23.404Z,8.60
2023-03-03T20:49:17.272Z,8.35
2023-03-03T20:51:56.195Z,8.07
2023-03-03T20:54:35.738Z,8.20
2023-03-03T20:57:13.026Z,8.55
2023-03-03T20:59:51.889Z,7.03
2023-03-03T21:02:28.580Z,8.25
2023-03-03T21:05:12.881Z,7.65
2023-03-03T21:07:54.352Z,7.00
2023-03-03T21:10:26.668Z,7.30
2023-03-03T21:12:57.682Z,6.97
2023-03-03T21:15:35.786Z,6.90
2023-03-03T21:18:24.068Z,7.05
2023-03-03T21:20:54.098Z,6.35
2023-03-03T21:23:23.921Z,6.57
2023-03-03T21:25:55.003Z,6.38
2023-03-03T21:28:27.737Z,7.20
2023-03-03T21:31:17.748Z,7.13
2023-03-03T21:33:50.267Z,6.60
2023-03-03T21:36:23.281Z,6.50
2023-03-03T21:38:55.034Z,5.45
2023-03-03T21:41:24.753Z,6.75
2023-03-03T21:43:56.401Z,6.90
2023-03-03T21:46:28.596Z,6.70
2023-03-03T21:48:58.143Z,5.97
2023-03-03T21:51:28.897Z,6.55
2023-03-03T21:53:58.768Z,5.72
2023-03-03T21:56:28.291Z,6.22
2023-03-03T21:58:57.808Z,6.47
2023-03-03T22:01:29.972Z,5.78
2023-03-03T22:04:00.106Z,6.65
2023-03-03T22:06:29.925Z,5.20
2023-03-03T22:08:59.564Z,5.68
2023-03-03T22:11:29.099Z,5.78
2023-03-03T22:13:58.627Z,5.70
2023-03-03T22:16:31.009Z,5.88
2023-03-03T22:19:02.741Z,5.53
2023-03-03T22:21:33.097Z,5.55
2023-03-03T22:24:02.634Z,5.78
2023-03-03T22:26:32.191Z,5.43
2023-03-03T22:29:01.856Z,5.75
2023-03-03T22:31:34.152Z,5.43
2023-03-03T22:34:04.653Z,6.03
2023-03-03T22:36:34.303Z,6.25
2023-03-03T22:39:03.828Z,5.57
2023-03-03T22:41:33.350Z,5.47
2023-03-03T22:44:02.865Z,6.10
2023-03-03T22:46:35.028Z,5.60
2023-03-03T22:49:04.745Z,5.28
2023-03-03T22:51:34.297Z,6.03
2023-03-03T22:54:05.156Z,6.00
2023-03-03T22:56:34.891Z,5.68
2023-03-03T22:59:04.504Z,5.40
2023-03-03T23:01:36.666Z,5.60
2023-03-03T23:04:06.504Z,5.85
2023-03-03T23:06:36.067Z,6.13
2023-03-03T23:09:05.692Z,5.63
2023-03-03T23:11:35.283Z,5.68
2023-03-03T23:14:04.925Z,5.90
2023-03-03T23:16:37.030Z,5.57
2023-03-03T23:19:06.582Z,5.13
2023-03-03T23:21:36.148Z,6.03
2023-03-03T23:24:06.652Z,5.43
2023-03-03T23:26:36.291Z,5.57
2023-03-03T23:29:05.924Z,5.43
2023-03-03T23:31:38.077Z,5.28
2023-03-03T23:34:07.801Z,5.47
2023-03-03T23:36:37.370Z,6.38
2023-03-03T23:39:07.323Z,5.75
2023-03-03T23:41:38.466Z,6.15
2023-03-03T23:44:08.081Z,6.25
2023-03-03T23:46:40.669Z,6.28
2023-03-03T23:49:10.494Z,5.55
2023-03-03T23:51:40.062Z,5.47
2023-03-03T23:54:09.589Z,5.45
2023-03-03T23:56:39.126Z,5.22
2023-03-03T23:59:08.642Z,5.78
